Time;durP1;ratioP1;P1;durP2;ratioP2;P2;SDS_P1;SDS_P2;PMS_P1;PMS_P2;Temp;Humidity;BMP_temperature;BMP_pressure;BME280_temperature;BME280_humidity;BME280_pressure;Samples;Min_cycle;Max_cycle;Signal;HPM_P1;HPM_P2
2024/04/06 00:01:04;;;;;;;3.92;1.88;;;;;;;16.11;100.00;101091.84;5278635;27;20023;-75
2024/04/06 00:03:34;;;;;;;4.00;1.70;;;;;;;16.00;100.00;101095.09;5272546;28;20427;-75
2024/04/06 00:06:05;;;;;;;6.00;1.95;;;;;;;16.01;100.00;101097.63;5273357;28;20028;-75
2024/04/06 00:08:35;;;;;;;5.63;2.40;;;;;;;16.01;100.00;101100.31;5266209;28;20050;-75
2024/04/06 00:11:06;;;;;;;7.20;2.00;;;;;;;15.96;100.00;101104.63;5279196;28;20027;-75
2024/04/06 00:13:36;;;;;;;4.18;2.00;;;;;;;15.97;100.00;101111.72;5280290;28;21174;-75
2024/04/06 00:16:07;;;;;;;4.57;2.28;;;;;;;15.99;100.00;101112.38;5277924;28;20023;-75
2024/04/06 00:18:39;;;;;;;6.88;2.38;;;;;;;16.02;100.00;101120.94;5273233;28;20016;-75
2024/04/06 00:21:09;;;;;;;5.28;2.03;;;;;;;16.04;100.00;101120.72;5274223;28;20038;-75
2024/04/06 00:23:40;;;;;;;7.28;2.38;;;;;;;16.02;100.00;101120.94;5277104;28;20020;-75
2024/04/06 00:26:10;;;;;;;6.95;2.00;;;;;;;15.99;100.00;101115.06;5276209;28;20031;-75
2024/04/06 00:28:42;;;;;;;6.10;1.90;;;;;;;15.90;100.00;101108.13;5270285;28;20028;-75
2024/04/06 00:31:12;;;;;;;5.70;2.17;;;;;;;15.73;100.00;101105.69;5271492;28;20020;-75
2024/04/06 00:33:43;;;;;;;7.65;2.13;;;;;;;15.55;100.00;101099.84;5270672;28;20043;-75
2024/04/06 00:36:13;;;;;;;3.88;2.13;;;;;;;15.41;100.00;101101.59;5280035;27;20022;-74
2024/04/06 00:38:44;;;;;;;5.90;2.38;;;;;;;15.32;100.00;101101.91;5263291;28;20020;-75
2024/04/06 00:41:14;;;;;;;4.78;2.40;;;;;;;15.19;100.00;101106.13;5256174;28;20055;-75
2024/04/06 00:43:45;;;;;;;8.15;1.92;;;;;;;15.07;100.00;101102.25;5275276;28;20041;-75
2024/04/06 00:46:16;;;;;;;4.18;1.80;;;;;;;14.96;100.00;101110.81;5277660;28;20015;-75
2024/04/06 00:48:46;;;;;;;7.05;2.13;;;;;;;14.85;100.00;101106.72;5265177;28;20116;-75
2024/04/06 00:51:17;;;;;;;3.63;2.42;;;;;;;14.84;100.00;101107.75;5274575;28;20027;-75
2024/04/06 00:53:47;;;;;;;5.80;2.80;;;;;;;14.88;100.00;101105.53;5278899;28;20031;-75
2024/04/06 00:56:18;;;;;;;4.68;2.22;;;;;;;14.94;100.00;101094.81;5256154;28;20020;-74
2024/04/06 00:58:49;;;;;;;9.63;2.78;;;;;;;14.97;100.00;101097.13;5261611;28;20099;-75
2024/04/06 01:01:19;;;;;;;9.45;2.72;;;;;;;15.05;100.00;101088.06;5280894;28;20440;-75
2024/04/06 01:03:50;;;;;;;6.45;2.20;;;;;;;15.00;100.00;101080.53;5273887;28;20034;-75
2024/04/06 01:06:20;;;;;;;4.80;2.65;;;;;;;15.01;100.00;101090.34;5279048;28;20030;-75
2024/04/06 01:08:51;;;;;;;7.03;2.50;;;;;;;15.06;100.00;101084.38;5266430;28;20062;-75
2024/04/06 01:11:22;;;;;;;7.07;2.90;;;;;;;15.07;100.00;101077.94;5273733;28;20066;-75
2024/04/06 01:13:52;;;;;;;6.13;2.30;;;;;;;15.07;100.00;101071.69;5282275;28;20027;-75
2024/04/06 01:16:23;;;;;;;12.10;3.30;;;;;;;15.11;100.00;101078.38;5270546;27;20016;-74
2024/04/06 01:18:54;;;;;;;8.18;2.65;;;;;;;15.11;100.00;101087.34;5278449;28;20106;-75
2024/04/06 01:21:26;;;;;;;9.20;2.70;;;;;;;15.12;100.00;101091.72;5282575;27;20451;-75
2024/04/06 01:23:56;;;;;;;10.02;3.20;;;;;;;15.15;100.00;101094.00;5278016;28;20043;-75
2024/04/06 01:26:27;;;;;;;10.25;3.45;;;;;;;15.23;100.00;101095.78;5274257;28;20088;-75
2024/04/06 01:28:58;;;;;;;9.60;3.20;;;;;;;15.25;100.00;101081.03;5269404;28;20028;-75
2024/04/06 01:31:28;;;;;;;6.80;2.40;;;;;;;15.24;100.00;101079.34;5268169;28;20111;-75
2024/04/06 01:33:59;;;;;;;7.75;2.72;;;;;;;15.18;100.00;101061.22;5278923;28;20509;-75
2024/04/06 01:36:29;;;;;;;8.18;2.60;;;;;;;15.16;100.00;101051.59;5267960;28;20061;-74
2024/04/06 01:39:00;;;;;;;7.05;2.70;;;;;;;15.13;100.00;101036.63;5279821;28;20024;-75
2024/04/06 01:41:30;;;;;;;9.55;3.08;;;;;;;15.13;100.00;101044.72;5280327;28;20016;-75
2024/04/06 01:44:00;;;;;;;5.95;2.70;;;;;;;15.11;100.00;101046.81;5274828;28;20024;-76
2024/04/06 01:46:31;;;;;;;7.03;2.90;;;;;;;15.35;100.00;101050.16;5278135;28;20062;-75
2024/04/06 01:49:03;;;;;;;8.40;2.78;;;;;;;15.50;100.00;101051.75;5277521;28;20028;-75
2024/04/06 01:51:33;;;;;;;6.63;3.20;;;;;;;15.64;100.00;101054.63;5281896;28;20024;-75
2024/04/06 01:54:04;;;;;;;5.90;2.83;;;;;;;15.76;100.00;101047.66;5285691;28;20019;-75
2024/04/06 01:56:35;;;;;;;6.30;2.45;;;;;;;15.85;100.00;101030.25;5280286;28;20016;-76
2024/04/06 01:59:05;;;;;;;7.38;2.97;;;;;;;15.84;100.00;101035.84;5273262;28;20067;-75
2024/04/06 02:01:36;;;;;;;11.55;3.17;;;;;;;15.81;100.00;101039.78;5278764;27;20020;-75
2024/04/06 02:04:07;;;;;;;5.53;2.53;;;;;;;15.84;100.00;101046.69;5279874;28;20036;-75
2024/04/06 02:06:38;;;;;;;4.95;2.47;;;;;;;15.71;100.00;101036.56;5281272;28;20727;-75
2024/04/06 02:09:08;;;;;;;6.22;3.08;;;;;;;15.68;100.00;101020.75;5274817;28;20069;-75
2024/04/06 02:11:39;;;;;;;7.93;2.80;;;;;;;15.63;100.00;101025.88;5276965;28;20393;-75
2024/04/06 02:14:10;;;;;;;7.35;3.15;;;;;;;15.62;100.00;101026.91;5278701;28;20030;-75
2024/04/06 02:16:41;;;;;;;6.53;2.70;;;;;;;15.54;100.00;101031.41;5276372;28;20513;-75
2024/04/06 02:19:12;;;;;;;9.68;2.70;;;;;;;15.47;100.00;101027.00;5279664;28;20099;-75
2024/04/06 02:21:42;;;;;;;10.38;2.95;;;;;;;15.44;100.00;101025.50;5279276;28;20031;-75
2024/04/06 02:24:13;;;;;;;6.43;2.60;;;;;;;15.42;100.00;101021.34;5279083;28;20031;-75
2024/04/06 02:26:44;;;;;;;6.95;3.10;;;;;;;15.28;100.00;101010.38;5278048;28;20015;-75
2024/04/06 02:29:15;;;;;;;8.88;2.95;;;;;;;15.20;100.00;100999.69;5274366;28;20081;-75
2024/04/06 02:31:45;;;;;;;6.63;2.83;;;;;;;15.16;100.00;100993.03;5278635;28;20024;-76
2024/04/06 02:34:16;;;;;;;6.72;2.67;;;;;;;15.10;100.00;100995.63;5278899;28;20016;-75
2024/04/06 02:36:46;;;;;;;6.45;3.40;;;;;;;15.06;100.00;101005.16;5277681;28;20028;-75
2024/04/06 02:39:17;;;;;;;8.15;2.85;;;;;;;14.98;100.00;101000.72;5280822;28;20023;-75
2024/04/06 02:41:48;;;;;;;7.13;2.53;;;;;;;14.94;100.00;101000.25;5280484;28;20579;-76
2024/04/06 02:44:18;;;;;;;7.88;2.70;;;;;;;14.92;100.00;100998.78;5282317;27;20024;-75
2024/04/06 02:46:49;;;;;;;10.63;2.78;;;;;;;14.84;100.00;100999.72;5275287;28;20027;-76
2024/04/06 02:49:20;;;;;;;10.80;2.60;;;;;;;14.83;100.00;101005.31;5276266;28;20031;-76
2024/04/06 02:51:51;;;;;;;8.52;2.55;;;;;;;14.85;100.00;100997.84;5278255;28;20020;-75
2024/04/06 02:54:21;;;;;;;9.00;2.85;;;;;;;14.85;100.00;100992.47;5278072;28;20027;-75
2024/04/06 02:56:51;;;;;;;7.00;2.72;;;;;;;14.80;100.00;101001.13;5274832;28;20035;-75
2024/04/06 02:59:22;;;;;;;6.88;3.33;;;;;;;14.83;100.00;101002.63;5274925;28;20023;-76
2024/04/06 03:01:52;;;;;;;5.43;2.45;;;;;;;14.79;100.00;101004.84;5280075;28;20016;-75
2024/04/06 03:04:23;;;;;;;7.95;2.70;;;;;;;14.78;100.00;100997.78;5279167;27;20025;-75
2024/04/06 03:06:54;;;;;;;6.70;2.90;;;;;;;14.69;100.00;100999.75;5261676;28;20065;-75
2024/04/06 03:09:24;;;;;;;7.75;2.92;;;;;;;14.70;100.00;101001.44;5276648;28;20442;-75
2024/04/06 03:11:55;;;;;;;6.13;2.70;;;;;;;14.71;100.00;100992.31;5274487;28;20027;-75
2024/04/06 03:14:26;;;;;;;7.78;2.60;;;;;;;14.73;100.00;100987.56;5278636;28;20043;-76
2024/04/06 03:16:57;;;;;;;6.13;2.63;;;;;;;14.68;100.00;100992.69;5277408;28;20023;-75
2024/04/06 03:19:27;;;;;;;8.18;2.80;;;;;;;14.64;100.00;100990.56;5278212;28;20066;-75
2024/04/06 03:21:58;;;;;;;7.60;2.90;;;;;;;14.49;100.00;100994.13;5277638;28;20015;-75
2024/04/06 03:24:28;;;;;;;4.80;2.90;;;;;;;14.47;100.00;100979.13;5277639;28;20028;-75
2024/04/06 03:26:59;;;;;;;5.43;2.72;;;;;;;14.33;100.00;100971.88;5276117;28;20012;-75
2024/04/06 03:29:29;;;;;;;6.47;2.88;;;;;;;14.36;100.00;100972.34;5266388;28;20106;-75
2024/04/06 03:32:00;;;;;;;8.23;3.05;;;;;;;14.36;100.00;100976.91;5278127;28;20107;-75
2024/04/06 03:34:30;;;;;;;13.05;3.35;;;;;;;14.34;100.00;100960.88;5274814;28;20046;-75
2024/04/06 03:37:01;;;;;;;7.22;3.05;;;;;;;14.34;100.00;100971.66;5278560;28;20019;-75
2024/04/06 03:39:31;;;;;;;6.13;3.20;;;;;;;14.20;100.00;100970.66;5274497;28;20015;-75
2024/04/06 03:42:02;;;;;;;8.57;3.72;;;;;;;14.11;100.00;100963.69;5274252;28;20016;-76
2024/04/06 03:44:33;;;;;;;7.03;3.90;;;;;;;14.12;100.00;100959.13;5276515;28;20027;-75
2024/04/06 03:47:03;;;;;;;6.55;3.20;;;;;;;14.12;100.00;100965.38;5274803;28;20598;-75
2024/04/06 03:49:34;;;;;;;10.20;3.78;;;;;;;14.27;100.00;100961.84;5277619;28;20036;-75
2024/04/06 03:52:04;;;;;;;7.38;3.30;;;;;;;14.32;100.00;100956.72;5277906;28;20040;-75
2024/04/06 03:54:35;;;;;;;7.95;3.30;;;;;;;14.34;100.00;100952.78;5278441;28;20028;-75
2024/04/06 03:57:05;;;;;;;9.63;3.65;;;;;;;14.36;100.00;100947.22;5270885;28;20077;-75
2024/04/06 03:59:36;;;;;;;6.95;3.15;;;;;;;14.43;100.00;100942.72;5270325;28;20527;-75
2024/04/06 04:02:06;;;;;;;5.45;3.30;;;;;;;14.51;100.00;100931.84;5277835;28;20027;-75
2024/04/06 04:04:37;;;;;;;5.03;2.80;;;;;;;14.56;100.00;100934.81;5271727;28;20024;-75
2024/04/06 04:07:07;;;;;;;7.68;3.58;;;;;;;14.55;100.00;100933.13;5275389;28;20024;-75
2024/04/06 04:09:38;;;;;;;7.97;2.58;;;;;;;14.57;100.00;100931.09;5274774;28;20022;-75
2024/04/06 04:12:08;;;;;;;6.60;2.63;;;;;;;14.63;100.00;100929.50;5278661;28;20060;-75
2024/04/06 04:14:39;;;;;;;5.43;2.85;;;;;;;14.66;100.00;100937.19;5274365;28;20036;-75
2024/04/06 04:17:09;;;;;;;7.53;3.08;;;;;;;14.65;100.00;100936.34;5272761;28;20015;-75
2024/04/06 04:19:39;;;;;;;8.32;2.33;;;;;;;14.63;100.00;100934.88;5271248;28;20034;-75
2024/04/06 04:22:10;;;;;;;5.03;2.38;;;;;;;14.58;100.00;100930.06;5279036;28;20027;-76
2024/04/06 04:24:41;;;;;;;4.32;2.70;;;;;;;14.53;100.00;100926.25;5270803;28;20019;-75
2024/04/06 04:27:11;;;;;;;5.85;2.45;;;;;;;14.48;100.00;100913.31;5276956;28;20547;-75
2024/04/06 04:29:42;;;;;;;5.43;2.80;;;;;;;14.42;100.00;100904.09;5265329;28;20020;-75
2024/04/06 04:32:12;;;;;;;7.50;2.63;;;;;;;14.40;100.00;100916.09;5275957;28;20026;-75
2024/04/06 04:34:43;;;;;;;8.18;2.97;;;;;;;14.38;100.00;100920.84;5274764;28;20026;-75
2024/04/06 04:37:14;;;;;;;9.52;3.08;;;;;;;14.37;100.00;100928.13;5274364;28;20012;-76
2024/04/06 04:39:45;;;;;;;8.35;2.70;;;;;;;14.39;100.00;100920.66;5274927;28;20064;-75
2024/04/06 04:42:15;;;;;;;4.75;2.60;;;;;;;14.45;100.00;100913.66;5272039;28;20024;-75
2024/04/06 04:44:46;;;;;;;6.57;2.25;;;;;;;14.51;100.00;100912.97;5274712;28;20024;-75
2024/04/06 04:47:17;;;;;;;9.20;2.90;;;;;;;14.52;100.00;100909.22;5269591;28;20043;-75
2024/04/06 04:49:48;;;;;;;5.35;2.50;;;;;;;14.51;100.00;100894.06;5277498;28;20038;-75
2024/04/06 04:52:18;;;;;;;8.88;2.65;;;;;;;14.49;100.00;100906.91;5274680;28;20745;-75
2024/04/06 04:54:49;;;;;;;9.13;2.60;;;;;;;14.43;100.00;100911.16;5278470;28;20023;-75
2024/04/06 04:57:20;;;;;;;10.35;2.65;;;;;;;14.42;100.00;100914.06;5269901;28;20028;-75
2024/04/06 04:59:50;;;;;;;6.55;2.75;;;;;;;14.50;100.00;100928.28;5274287;28;20118;-75
2024/04/06 05:02:21;;;;;;;3.72;2.40;;;;;;;14.55;100.00;100927.72;5283279;28;20028;-75
2024/04/06 05:04:52;;;;;;;3.92;2.50;;;;;;;14.67;100.00;100928.91;5276662;28;20032;-75
2024/04/06 05:07:22;;;;;;;8.75;2.83;;;;;;;14.77;100.00;100931.31;5270804;28;20057;-75
2024/04/06 05:09:53;;;;;;;9.43;3.00;;;;;;;14.96;100.00;100929.81;5265212;28;20012;-75
2024/04/06 05:12:24;;;;;;;5.68;2.50;;;;;;;15.05;100.00;100931.38;5278871;28;20034;-75
2024/04/06 05:14:54;;;;;;;6.20;2.63;;;;;;;15.10;100.00;100926.22;5282832;27;20012;-76
2024/04/06 05:17:25;;;;;;;5.00;2.70;;;;;;;15.15;100.00;100917.53;5282500;27;20110;-75
2024/04/06 05:19:55;;;;;;;7.45;2.05;;;;;;;15.35;100.00;100909.59;5283940;28;20020;-75
2024/04/06 05:22:26;;;;;;;11.77;2.15;;;;;;;15.42;100.00;100914.03;5283913;28;20063;-75
2024/04/06 05:24:56;;;;;;;7.45;2.10;;;;;;;15.67;100.00;100910.91;5284975;28;20024;-73
2024/04/06 05:27:28;;;;;;;4.82;2.33;;;;;;;15.70;100.00;100900.50;5284867;27;20024;-76
2024/04/06 05:29:58;;;;;;;7.55;1.92;;;;;;;15.98;100.00;100900.47;5278606;27;20024;-76
2024/04/06 05:32:28;;;;;;;5.95;2.15;;;;;;;16.04;100.00;100906.94;5282196;28;20028;-75
2024/04/06 05:34:59;;;;;;;5.85;1.90;;;;;;;16.09;100.00;100909.91;5275869;28;20023;-75
2024/04/06 05:37:29;;;;;;;5.70;1.92;;;;;;;16.17;100.00;100908.91;5282636;27;20024;-74
2024/04/06 05:40:00;;;;;;;7.82;2.00;;;;;;;16.24;100.00;100916.00;5288126;27;20043;-74
2024/04/06 05:42:30;;;;;;;3.58;1.67;;;;;;;16.27;100.00;100914.78;5274468;27;20114;-75
2024/04/06 05:45:01;;;;;;;3.30;2.05;;;;;;;16.40;100.00;100911.28;5276818;27;20031;-74
2024/04/06 05:47:31;;;;;;;4.28;2.13;;;;;;;16.39;100.00;100909.59;5286418;28;20045;-74
2024/04/06 05:50:02;;;;;;;3.40;1.88;;;;;;;16.46;100.00;100911.28;5271895;27;20041;-74
2024/04/06 05:52:33;;;;;;;3.20;1.88;;;;;;;16.68;100.00;100916.56;5279344;28;20081;-75
2024/04/06 05:55:05;;;;;;;4.88;1.80;;;;;;;16.77;100.00;100916.22;5280707;28;20028;-74
2024/04/06 05:57:36;;;;;;;3.17;1.58;;;;;;;16.76;100.00;100913.69;5277476;28;20024;-75
2024/04/06 06:00:09;;;;;;;5.63;2.10;;;;;;;16.95;100.00;100914.78;5276246;27;20056;-74
2024/04/06 06:02:40;;;;;;;4.13;1.80;;;;;;;17.16;100.00;100906.44;5282291;28;20035;-75
2024/04/06 06:05:11;;;;;;;6.60;2.28;;;;;;;17.48;100.00;100915.63;5279094;28;20018;-74
2024/04/06 06:07:41;;;;;;;6.85;2.28;;;;;;;17.86;100.00;100901.38;5280979;28;20473;-74
2024/04/06 06:10:12;;;;;;;6.55;2.10;;;;;;;18.33;100.00;100907.50;5279138;28;20019;-74
2024/04/06 06:12:42;;;;;;;6.80;2.10;;;;;;;18.59;100.00;100906.53;5275997;27;20020;-74
2024/04/06 06:15:13;;;;;;;2.47;1.58;;;;;;;18.47;100.00;100905.53;5274849;28;20023;-74
2024/04/06 06:17:43;;;;;;;8.52;2.40;;;;;;;18.36;100.00;100907.06;5283810;27;20039;-76
2024/04/06 06:20:14;;;;;;;4.65;1.90;;;;;;;18.29;100.00;100903.56;5286650;27;20038;-76
2024/04/06 06:22:45;;;;;;;7.60;1.98;;;;;;;18.33;100.00;100905.63;5280718;27;20026;-76
2024/04/06 06:25:16;;;;;;;3.42;1.58;;;;;;;18.12;100.00;100895.03;5281689;28;20019;-76
2024/04/06 06:27:46;;;;;;;7.07;1.88;;;;;;;18.10;100.00;100891.72;5279133;28;20026;-76
2024/04/06 06:30:17;;;;;;;3.13;1.90;;;;;;;18.07;100.00;100890.28;5282419;28;20473;-74
2024/04/06 06:32:47;;;;;;;3.60;1.42;;;;;;;18.20;100.00;100899.41;5279980;28;20542;-75
2024/04/06 06:35:18;;;;;;;3.35;1.50;;;;;;;18.70;100.00;100892.28;5279582;28;20089;-74
2024/04/06 06:37:48;;;;;;;3.92;1.67;;;;;;;19.11;100.00;100899.09;5279626;28;20012;-74
2024/04/06 06:40:20;;;;;;;4.78;1.73;;;;;;;19.60;100.00;100895.56;5281899;28;20015;-73
2024/04/06 06:42:51;;;;;;;5.72;1.50;;;;;;;20.07;100.00;100886.88;5280709;28;20050;-76
2024/04/06 06:45:21;;;;;;;5.38;2.30;;;;;;;20.49;100.00;100884.31;5283220;27;20020;-76
2024/04/06 06:47:52;;;;;;;4.32;1.58;;;;;;;20.50;100.00;100875.06;5271721;28;20136;-76
2024/04/06 06:50:22;;;;;;;2.47;1.45;;;;;;;20.56;100.00;100879.56;5280794;28;20017;-76
2024/04/06 06:52:53;;;;;;;4.28;1.20;;;;;;;20.43;100.00;100880.53;5281799;28;20157;-76
2024/04/06 06:55:23;;;;;;;3.47;1.73;;;;;;;20.53;100.00;100874.56;5280350;28;20385;-76
2024/04/06 06:57:54;;;;;;;5.55;1.70;;;;;;;20.51;100.00;100874.81;5275576;28;20011;-76
2024/04/06 07:00:25;;;;;;;3.70;1.50;;;;;;;20.61;100.00;100877.00;5272875;28;20535;-77
2024/04/06 07:02:55;;;;;;;4.35;1.42;;;;;;;20.49;100.00;100868.78;5275086;28;20033;-76
2024/04/06 07:05:25;;;;;;;2.80;1.40;;;;;;;20.49;100.00;100862.50;5278888;28;20027;-77
2024/04/06 07:07:59;;;;;;;3.03;1.52;;;;;;;20.83;100.00;100864.47;5276207;28;20457;-77
2024/04/06 07:10:29;;;;;;;2.88;1.30;;;;;;;21.06;100.00;100873.78;5277959;28;20023;-76
2024/04/06 07:13:00;;;;;;;4.03;1.30;;;;;;;21.39;100.00;100876.00;5278612;28;20934;-76
2024/04/06 07:15:30;;;;;;;4.95;1.35;;;;;;;21.55;100.00;100874.44;5280430;28;20034;-76
2024/04/06 07:18:01;;;;;;;6.88;1.65;;;;;;;21.66;100.00;100885.34;5277334;28;20015;-75
2024/04/06 07:20:32;;;;;;;3.97;1.40;;;;;;;21.91;100.00;100898.72;5279232;27;20031;-75
2024/04/06 07:23:03;;;;;;;3.55;1.58;;;;;;;21.93;100.00;100869.28;5276580;28;20023;-76
2024/04/06 07:25:33;;;;;;;4.13;1.35;;;;;;;21.95;100.00;100877.25;5279003;27;20042;-76
2024/04/06 07:28:04;;;;;;;3.33;1.15;;;;;;;22.36;100.00;100891.78;5277430;28;20024;-77
2024/04/06 07:30:34;;;;;;;3.05;1.30;;;;;;;22.23;100.00;100890.97;5272640;28;20027;-76
2024/04/06 07:33:05;;;;;;;3.72;1.55;;;;;;;22.62;100.00;100893.91;5279507;28;20016;-76
2024/04/06 07:35:36;;;;;;;4.82;1.20;;;;;;;22.88;100.00;100884.28;5274462;28;20106;-74
2024/04/06 07:38:07;;;;;;;3.22;1.40;;;;;;;22.59;100.00;100877.16;5275869;28;20019;-74
2024/04/06 07:40:38;;;;;;;4.53;1.40;;;;;;;22.54;100.00;100868.84;5279343;28;20020;-78
2024/04/06 07:43:08;;;;;;;8.25;1.23;;;;;;;22.56;100.00;100867.56;5276614;28;20023;-75
2024/04/06 07:45:39;;;;;;;2.25;1.25;;;;;;;22.47;100.00;100858.91;5276620;28;20023;-75
2024/04/06 07:48:09;;;;;;;2.85;1.23;;;;;;;22.60;100.00;100867.91;5282275;28;20030;-75
2024/04/06 07:50:40;;;;;;;3.80;1.15;;;;;;;23.02;100.00;100868.38;5274964;28;20630;-75
2024/04/06 07:53:11;;;;;;;3.90;0.95;;;;;;;23.03;100.00;100871.94;5283508;27;20034;-75
2024/04/06 07:55:41;;;;;;;3.67;1.20;;;;;;;22.63;100.00;100861.94;5274502;28;20024;-76
2024/04/06 07:58:12;;;;;;;3.88;1.10;;;;;;;22.34;100.00;100859.22;5272492;28;20019;-76
2024/04/06 08:00:42;;;;;;;3.38;1.08;;;;;;;22.20;100.00;100869.59;5279212;28;20054;-76
2024/04/06 08:03:13;;;;;;;3.75;1.60;;;;;;;21.88;100.00;100855.50;5276588;28;20004;-78
2024/04/06 08:05:43;;;;;;;4.30;1.25;;;;;;;21.61;100.00;100846.19;5279976;28;20031;-76
2024/04/06 08:08:15;;;;;;;3.33;0.95;;;;;;;21.36;100.00;100840.97;5276586;28;20021;-76
2024/04/06 08:10:46;;;;;;;6.63;1.42;;;;;;;21.25;100.00;100856.25;5277440;28;20024;-76
2024/04/06 08:13:16;;;;;;;3.55;1.48;;;;;;;21.08;100.00;100858.00;5278409;28;20015;-75
2024/04/06 08:15:47;;;;;;;2.35;1.40;;;;;;;20.90;100.00;100859.78;5278515;28;20030;-75
2024/04/06 08:18:17;;;;;;;1.98;0.93;;;;;;;20.98;100.00;100850.41;5275707;28;20066;-77
2024/04/06 08:20:48;;;;;;;2.08;1.00;;;;;;;20.91;100.00;100852.41;5277079;27;20036;-75
2024/04/06 08:23:18;;;;;;;5.07;1.50;;;;;;;20.87;100.00;100837.59;5275416;28;20019;-75
2024/04/06 08:25:53;;;;;;;4.22;1.30;;;;;;;20.93;100.00;100826.59;5277079;28;20501;-76
2024/04/06 08:28:23;;;;;;;2.85;1.50;;;;;;;20.99;100.00;100841.19;5272393;28;20024;-77
2024/04/06 08:30:54;;;;;;;2.90;1.10;;;;;;;20.86;100.00;100831.31;5271611;28;20050;-76
2024/04/06 08:33:24;;;;;;;5.65;1.23;;;;;;;20.90;100.00;100837.13;5282461;28;20020;-76
2024/04/06 08:36:01;;;;;;;4.03;1.20;;;;;;;20.86;100.00;100835.94;5278669;28;20028;-77
2024/04/06 08:38:31;;;;;;;4.53;1.20;;;;;;;20.91;100.00;100825.16;5275712;28;20015;-78
2024/04/06 08:41:08;;;;;;;2.13;0.93;;;;;;;20.93;100.00;100815.69;5279219;28;20024;-76
2024/04/06 08:43:43;;;;;;;6.05;1.30;;;;;;;21.04;100.00;100813.19;5274190;28;20027;-75
2024/04/06 08:46:13;;;;;;;3.60;1.00;;;;;;;21.31;100.00;100802.66;5264772;28;20016;-75
2024/04/06 08:48:48;;;;;;;2.15;1.10;;;;;;;21.44;100.00;100807.88;5276437;28;20130;-76
2024/04/06 08:51:20;;;;;;;3.60;1.00;;;;;;;21.44;100.00;100810.63;5278080;28;20023;-75
2024/04/06 08:53:51;;;;;;;3.75;1.20;;;;;;;21.81;100.00;100808.41;5278611;28;20041;-75
2024/04/06 08:56:21;;;;;;;7.35;1.35;;;;;;;22.30;100.00;100800.66;5274473;28;20415;-75
2024/04/06 08:58:53;;;;;;;2.83;1.30;;;;;;;22.84;100.00;100798.31;5270275;28;20384;-78
2024/04/06 09:01:23;;;;;;;2.80;1.00;;;;;;;23.06;100.00;100803.91;5276289;28;20115;-75
2024/04/06 09:03:54;;;;;;;3.40;1.10;;;;;;;23.02;100.00;100807.38;5272334;28;20112;-75
2024/04/06 09:06:24;;;;;;;2.13;0.95;;;;;;;22.97;100.00;100797.19;5279845;28;20026;-77
2024/04/06 09:08:55;;;;;;;3.05;1.02;;;;;;;23.12;100.00;100791.13;5283936;28;20103;-76
2024/04/06 09:11:25;;;;;;;1.98;1.13;;;;;;;23.04;100.00;100789.63;5273671;28;20036;-76
2024/04/06 09:14:02;;;;;;;1.58;1.02;;;;;;;23.26;100.00;100785.03;5273874;28;20012;-76
2024/04/06 09:16:34;;;;;;;2.00;0.90;;;;;;;23.09;100.00;100786.97;5270139;28;20032;-78
2024/04/06 09:19:06;;;;;;;3.30;1.23;;;;;;;23.22;100.00;100783.88;5278649;28;20072;-77
2024/04/06 09:21:36;;;;;;;3.53;1.48;;;;;;;23.30;100.00;100790.03;5271438;28;20046;-77
2024/04/06 09:24:08;;;;;;;2.50;0.90;;;;;;;23.20;100.00;100777.03;5271864;28;20012;-76
2024/04/06 09:26:40;;;;;;;2.70;0.90;;;;;;;23.17;100.00;100792.00;5277478;28;20027;-78
2024/04/06 09:29:11;;;;;;;4.07;1.27;;;;;;;23.20;100.00;100786.06;5270054;28;20046;-77
2024/04/06 09:31:47;;;;;;;1.70;0.85;;;;;;;23.32;100.00;100790.59;5278433;28;20020;-78
2024/04/06 09:34:18;;;;;;;6.80;1.00;;;;;;;23.23;100.00;100795.66;5270950;28;20030;-77
2024/04/06 09:36:56;;;;;;;1.77;0.80;;;;;;;23.18;100.00;100779.16;5278744;27;20028;-78
2024/04/06 09:39:30;;;;;;;5.88;1.00;;;;;;;23.48;100.00;100781.50;5271285;28;20089;-76
2024/04/06 09:42:03;;;;;;;1.85;0.90;;;;;;;23.19;100.00;100786.28;5274490;28;20052;-76
2024/04/06 09:44:34;;;;;;;2.25;0.80;;;;;;;23.23;100.00;100787.44;5277862;28;20027;-76
2024/04/06 09:47:06;;;;;;;5.30;0.90;;;;;;;23.39;100.00;100789.31;5259425;28;20028;-77
2024/04/06 09:49:38;;;;;;;4.57;0.82;;;;;;;23.52;100.00;100793.59;5268576;28;20099;-76
2024/04/06 09:52:09;;;;;;;1.08;0.95;;;;;;;23.32;100.00;100788.69;5275498;28;20024;-76
2024/04/06 09:54:40;;;;;;;1.52;1.00;;;;;;;23.56;100.00;100794.75;5277779;28;20030;-76
2024/04/06 09:57:13;;;;;;;3.80;1.10;;;;;;;23.84;100.00;100791.03;5269426;28;20066;-76
2024/04/06 09:59:45;;;;;;;2.15;0.90;;;;;;;23.90;100.00;100790.03;5280404;28;20019;-76
2024/04/06 10:02:23;;;;;;;1.45;0.80;;;;;;;24.02;100.00;100793.44;5283300;28;20027;-76
2024/04/06 10:04:56;;;;;;;3.95;1.42;;;;;;;24.19;100.00;100792.50;5277720;28;20028;-79
2024/04/06 10:07:28;;;;;;;2.28;1.20;;;;;;;24.25;100.00;100800.56;5281007;27;20597;-76
2024/04/06 10:10:02;;;;;;;1.75;0.90;;;;;;;24.30;100.00;100797.03;5282685;28;20028;-76
2024/04/06 10:12:45;;;;;;;2.00;0.85;;;;;;;24.54;100.00;100792.06;5280749;28;20488;-77
2024/04/06 10:15:18;;;;;;;2.42;0.90;;;;;;;24.77;100.00;100790.91;5265482;28;20165;-77
2024/04/06 10:17:58;;;;;;;3.75;1.38;;;;;;;24.99;100.00;100799.84;5274074;28;20031;-76
2024/04/06 10:20:31;;;;;;;3.42;1.00;;;;;;;25.17;100.00;100793.16;5281303;27;20541;-76
2024/04/06 10:23:01;;;;;;;1.65;1.02;;;;;;;25.38;100.00;100788.63;5282854;28;20020;-76
2024/04/06 10:25:36;;;;;;;1.75;0.90;;;;;;;25.29;100.00;100782.78;5273818;28;20028;-78
2024/04/06 10:28:09;;;;;;;2.45;1.00;;;;;;;25.27;100.00;100776.75;5278098;28;20018;-76
2024/04/06 10:30:40;;;;;;;3.53;0.80;;;;;;;25.05;100.00;100765.03;5273283;28;20079;-78
2024/04/06 10:33:11;;;;;;;3.20;0.88;;;;;;;24.57;100.00;100755.91;5281060;28;20023;-76
2024/04/06 10:35:41;;;;;;;2.25;0.90;;;;;;;24.70;100.00;100754.63;5283050;28;20031;-76
2024/04/06 10:38:12;;;;;;;1.15;0.73;;;;;;;24.80;100.00;100750.06;5279888;28;20012;-76
2024/04/06 10:40:43;;;;;;;2.92;1.15;;;;;;;24.58;100.00;100738.34;5280323;28;20034;-76
2024/04/06 10:43:13;;;;;;;2.20;0.93;;;;;;;24.51;100.00;100741.34;5278829;28;20487;-76
2024/04/06 10:45:44;;;;;;;1.38;0.77;;;;;;;24.37;100.00;100740.09;5277554;28;20031;-76
2024/04/06 10:48:14;;;;;;;4.68;0.80;;;;;;;24.96;100.00;100737.28;5273860;28;20396;-79
2024/04/06 10:50:45;;;;;;;1.13;0.60;;;;;;;25.08;100.00;100734.34;5274899;28;20077;-77
2024/04/06 10:53:17;;;;;;;1.25;0.70;;;;;;;25.23;100.00;100728.13;5284424;28;20016;-76
2024/04/06 10:55:49;;;;;;;1.75;0.85;;;;;;;25.41;100.00;100733.19;5276350;28;20488;-78
2024/04/06 10:58:19;;;;;;;11.82;1.02;;;;;;;25.67;100.00;100728.59;5272371;28;20090;-77
2024/04/06 11:00:50;;;;;;;2.40;0.75;;;;;;;26.02;100.00;100730.66;5282817;28;20020;-76
2024/04/06 11:03:21;;;;;;;4.45;1.13;;;;;;;25.80;100.00;100730.03;5278542;28;20019;-78
2024/04/06 11:05:52;;;;;;;1.98;0.88;;;;;;;25.95;100.00;100727.31;5281852;28;20412;-77
2024/04/06 11:08:23;;;;;;;3.00;0.98;;;;;;;25.88;100.00;100726.78;5280580;28;20036;-79
2024/04/06 11:10:55;;;;;;;0.63;0.52;;;;;;;25.91;100.00;100718.00;5281274;28;20031;-76
2024/04/06 11:13:25;;;;;;;4.55;0.85;;;;;;;25.97;100.00;100714.16;5274219;28;20621;-76
2024/04/06 11:15:56;;;;;;;0.95;0.75;;;;;;;26.32;100.00;100715.31;5276745;28;20045;-77
2024/04/06 11:18:26;;;;;;;2.67;1.13;;;;;;;26.46;100.00;100715.63;5276960;28;20012;-80
2024/04/06 11:20:57;;;;;;;2.15;0.90;;;;;;;26.39;100.00;100706.78;5277429;28;20895;-80
2024/04/06 11:23:28;;;;;;;3.08;0.70;;;;;;;26.17;100.00;100707.03;5277782;28;20431;-77
2024/04/06 11:26:01;;;;;;;3.50;1.13;;;;;;;26.12;100.00;100710.59;5271021;28;20024;-76
2024/04/06 11:28:32;;;;;;;3.65;1.15;;;;;;;26.10;100.00;100704.53;5274615;28;20024;-77
2024/04/06 11:31:03;;;;;;;3.55;1.02;;;;;;;25.81;99.72;100716.03;5275099;28;20029;-79
2024/04/06 11:33:33;;;;;;;5.68;1.10;;;;;;;25.77;99.89;100700.38;5281162;28;20110;-79